createdAt,value
2019-05-21T00:00:44.143Z,31.50
2019-05-21T00:03:15.806Z,31.70
2019-05-21T00:05:47.457Z,31.90
2019-05-21T00:08:19.346Z,32.10
2019-05-21T00:10:49.354Z,32.20
2019-05-21T00:13:20.807Z,32.40
2019-05-21T00:15:52.359Z,32.70
2019-05-21T00:18:23.619Z,32.90
2019-05-21T00:20:55.189Z,33.30
2019-05-21T00:23:26.209Z,33.60
2019-05-21T00:25:57.852Z,33.90
2019-05-21T00:28:31.077Z,34.30
2019-05-21T00:31:04.758Z,34.60
2019-05-21T00:33:38.346Z,34.80
2019-05-21T00:36:11.955Z,35.00
2019-05-21T00:38:45.570Z,35.20
2019-05-21T00:41:19.159Z,35.40
2019-05-21T00:43:52.643Z,35.70
2019-05-21T00:46:24.470Z,35.90
2019-05-21T00:48:56.385Z,36.00
2019-05-21T00:51:27.835Z,36.20
2019-05-21T00:53:59.513Z,36.40
2019-05-21T00:56:29.477Z,36.60
2019-05-21T00:59:00.317Z,36.80
2019-05-21T01:01:31.187Z,37.00
2019-05-21T01:04:02.414Z,37.20
2019-05-21T01:06:33.973Z,37.40
2019-05-21T01:09:06.982Z,37.60
2019-05-21T01:11:38.259Z,37.80
2019-05-21T01:14:09.404Z,38.00
2019-05-21T01:16:40.634Z,38.10
2019-05-21T01:19:11.970Z,38.30
2019-05-21T01:21:43.617Z,38.50
2019-05-21T01:24:15.128Z,38.60
2019-05-21T01:26:46.381Z,38.70
2019-05-21T01:29:18.085Z,38.80
2019-05-21T01:31:49.839Z,38.90
2019-05-21T01:34:21.261Z,39.10
2019-05-21T01:36:52.148Z,39.20
2019-05-21T01:39:23.885Z,39.40
2019-05-21T01:41:55.123Z,39.70
2019-05-21T01:44:26.378Z,39.90
2019-05-21T01:46:57.936Z,40.00
2019-05-21T01:49:29.159Z,40.00
2019-05-21T01:52:00.427Z,39.90
2019-05-21T01:54:32.296Z,39.90
2019-05-21T01:57:03.602Z,39.90
2019-05-21T01:59:34.086Z,40.10
2019-05-21T02:02:05.037Z,40.20
2019-05-21T02:04:36.788Z,40.40
2019-05-21T02:07:08.067Z,40.60
2019-05-21T02:09:40.352Z,40.80
2019-05-21T02:12:12.178Z,41.10
2019-05-21T02:14:43.828Z,41.30
2019-05-21T02:17:15.668Z,41.30
2019-05-21T02:19:47.438Z,41.30
2019-05-21T02:22:19.187Z,41.30
2019-05-21T02:24:50.655Z,41.40
2019-05-21T02:27:21.755Z,41.40
2019-05-21T02:29:52.626Z,41.40
2019-05-21T02:32:24.059Z,41.50
2019-05-21T02:34:55.762Z,41.60
2019-05-21T02:37:26.999Z,41.50
2019-05-21T02:39:57.329Z,41.50
2019-05-21T02:42:28.393Z,41.40
2019-05-21T02:45:01.124Z,41.30
2019-05-21T02:47:31.130Z,41.10
2019-05-21T02:50:02.500Z,41.10
2019-05-21T02:52:34.167Z,41.20
2019-05-21T02:55:06.744Z,41.40
2019-05-21T02:57:39.480Z,41.30
2019-05-21T03:00:13.801Z,41.20
2019-05-21T03:02:45.818Z,41.20
2019-05-21T03:05:17.649Z,41.10
2019-05-21T03:07:48.786Z,41.10
2019-05-21T03:10:19.842Z,41.20
2019-05-21T03:12:51.466Z,41.30
2019-05-21T03:15:23.290Z,41.20
2019-05-21T03:17:55.136Z,41.20
2019-05-21T03:20:26.848Z,41.20
2019-05-21T03:22:58.659Z,41.20
2019-05-21T03:25:30.097Z,41.20
2019-05-21T03:28:01.338Z,41.30
2019-05-21T03:30:31.600Z,41.40
2019-05-21T03:33:03.032Z,41.50
2019-05-21T03:35:34.498Z,41.80
2019-05-21T03:38:06.447Z,42.00
2019-05-21T03:40:37.914Z,42.10
2019-05-21T03:43:09.072Z,41.80
2019-05-21T03:45:39.716Z,41.40
2019-05-21T03:48:11.336Z,41.00
2019-05-21T03:50:43.042Z,40.50
2019-05-21T03:53:14.313Z,40.10
2019-05-21T03:55:44.377Z,39.80
2019-05-21T03:58:16.116Z,39.60
2019-05-21T04:00:47.540Z,39.40
2019-05-21T04:03:19.399Z,39.30
2019-05-21T04:05:50.737Z,39.10
2019-05-21T04:08:22.908Z,39.00
2019-05-21T04:10:53.857Z,39.00
2019-05-21T04:13:24.774Z,38.80
2019-05-21T04:15:57.383Z,38.70
2019-05-21T04:18:30.106Z,38.60
2019-05-21T04:21:02.041Z,38.50
2019-05-21T04:23:34.459Z,38.40
2019-05-21T04:26:06.105Z,38.30
2019-05-21T04:28:37.871Z,38.30
2019-05-21T04:31:09.442Z,38.20
2019-05-21T04:33:41.450Z,38.20
2019-05-21T04:36:13.143Z,38.20
2019-05-21T04:38:44.992Z,38.20
2019-05-21T04:41:16.274Z,38.20
2019-05-21T04:43:47.732Z,38.40
2019-05-21T04:46:18.363Z,38.40
2019-05-21T04:48:50.209Z,38.40
2019-05-21T04:51:21.278Z,38.50
2019-05-21T04:53:52.986Z,38.60
2019-05-21T04:56:24.829Z,38.60
2019-05-21T04:58:56.508Z,38.70
2019-05-21T05:01:28.372Z,38.70
2019-05-21T05:04:00.355Z,38.60
2019-05-21T05:06:32.178Z,38.60
2019-05-21T05:09:03.763Z,38.60
2019-05-21T05:11:35.724Z,38.50
2019-05-21T05:14:07.794Z,38.60
2019-05-21T05:16:39.504Z,38.60
2019-05-21T05:19:11.200Z,38.60
2019-05-21T05:21:42.480Z,38.50
2019-05-21T05:24:14.185Z,38.60
2019-05-21T05:26:45.425Z,38.60
2019-05-21T05:29:17.121Z,38.70
2019-05-21T05:31:48.810Z,38.70
2019-05-21T05:34:20.423Z,38.60
2019-05-21T05:36:52.332Z,38.60
2019-05-21T05:39:24.139Z,38.70
2019-05-21T05:41:56.253Z,38.80
2019-05-21T05:44:27.693Z,38.80
2019-05-21T05:46:59.381Z,39.00
2019-05-21T05:49:32.509Z,39.00
2019-05-21T05:52:04.129Z,38.90
2019-05-21T05:54:35.418Z,38.80
2019-05-21T05:57:06.377Z,38.80
2019-05-21T05:59:38.203Z,38.70
2019-05-21T06:02:09.454Z,38.80
2019-05-21T06:04:40.996Z,38.80
2019-05-21T06:07:12.876Z,38.90
2019-05-21T06:09:44.469Z,38.80
2019-05-21T06:12:16.374Z,38.80
2019-05-21T06:14:47.627Z,38.70
2019-05-21T06:17:18.667Z,38.70
2019-05-21T06:19:50.391Z,38.80
2019-05-21T06:22:25.030Z,38.80
2019-05-21T06:24:57.632Z,38.90
2019-05-21T06:27:32.228Z,38.90
2019-05-21T06:30:07.576Z,38.90
2019-05-21T06:32:41.769Z,39.00
2019-05-21T06:35:14.134Z,39.00
2019-05-21T06:37:45.995Z,39.00
2019-05-21T06:40:19.310Z,39.00
2019-05-21T06:42:50.501Z,39.00
2019-05-21T06:45:23.079Z,38.90
2019-05-21T06:47:54.662Z,38.90
2019-05-21T06:50:26.637Z,38.80
2019-05-21T06:52:58.610Z,38.80
2019-05-21T06:55:29.970Z,38.80
2019-05-21T06:58:00.618Z,38.80
2019-05-21T07:00:32.387Z,38.90
2019-05-21T07:03:04.120Z,38.90
2019-05-21T07:05:35.889Z,38.90
2019-05-21T07:08:07.937Z,39.00
2019-05-21T07:10:39.851Z,39.00
2019-05-21T07:13:10.976Z,39.00
2019-05-21T07:15:42.952Z,39.00
2019-05-21T07:18:14.547Z,39.00
2019-05-21T07:20:46.429Z,39.00
2019-05-21T07:23:17.746Z,39.00
2019-05-21T07:25:48.351Z,39.10
2019-05-21T07:28:20.353Z,39.10
2019-05-21T07:30:51.890Z,39.20
2019-05-21T07:33:23.226Z,39.20
2019-05-21T07:35:53.653Z,39.20
2019-05-21T07:38:25.495Z,39.20
2019-05-21T07:40:57.037Z,39.20
2019-05-21T07:43:28.507Z,39.10
2019-05-21T07:46:00.454Z,39.00
2019-05-21T07:48:31.813Z,38.90
2019-05-21T07:51:02.366Z,38.90
2019-05-21T07:53:33.768Z,38.80
2019-05-21T07:56:05.848Z,38.70
2019-05-21T07:58:37.414Z,38.50
2019-05-21T08:01:08.681Z,38.40
2019-05-21T08:03:40.514Z,38.30
2019-05-21T08:06:14.966Z,38.30
2019-05-21T08:36:30.642Z,38.60
2019-05-21T08:39:02.492Z,38.70
2019-05-21T08:41:33.962Z,38.70
2019-05-21T08:44:05.291Z,38.50
2019-05-21T08:46:36.684Z,38.20
2019-05-21T08:49:07.042Z,37.90
2019-05-21T08:51:38.125Z,37.60
2019-05-21T08:54:09.465Z,37.40
2019-05-21T08:56:41.339Z,37.20
2019-05-21T08:59:13.110Z,37.00
2019-05-21T09:01:44.665Z,36.80
2019-05-21T09:04:16.726Z,36.70
2019-05-21T09:06:48.083Z,36.60
2019-05-21T09:09:19.989Z,36.50
2019-05-21T09:11:51.992Z,36.40
2019-05-21T09:14:23.598Z,36.40
2019-05-21T09:16:55.426Z,36.30
2019-05-21T09:19:26.684Z,36.30
2019-05-21T09:21:59.021Z,36.30
2019-05-21T09:24:30.972Z,36.30
2019-05-21T09:27:02.384Z,36.30
2019-05-21T09:29:33.902Z,36.20
2019-05-21T09:32:04.331Z,36.20
2019-05-21T09:34:48.143Z,36.20
2019-05-21T09:37:19.063Z,36.20
2019-05-21T09:39:41.758Z,36.10
2019-05-21T09:42:13.630Z,36.00
2019-05-21T09:44:45.565Z,35.90
2019-05-21T09:47:17.454Z,35.40
2019-05-21T09:49:49.269Z,34.70
2019-05-21T09:52:20.555Z,34.10
2019-05-21T09:54:52.555Z,33.50
2019-05-21T09:57:25.504Z,33.00
2019-05-21T09:59:57.883Z,32.60
2019-05-21T10:02:30.641Z,32.20
2019-05-21T10:05:02.133Z,31.80
2019-05-21T10:07:39.773Z,31.40
2019-05-21T10:10:08.362Z,31.00
2019-05-21T10:12:40.278Z,30.70
2019-05-21T10:15:11.093Z,30.30
2019-05-21T10:17:42.887Z,30.10
2019-05-21T10:20:14.953Z,29.90
2019-05-21T10:22:46.729Z,29.70
2019-05-21T10:25:18.747Z,29.60
2019-05-21T10:27:49.222Z,29.60
2019-05-21T10:30:21.046Z,29.50
2019-05-21T10:32:52.212Z,29.40
2019-05-21T10:35:24.047Z,29.30
2019-05-21T10:37:55.621Z,29.10
2019-05-21T10:40:27.920Z,28.90
2019-05-21T10:42:59.551Z,28.70
2019-05-21T10:45:31.702Z,28.60
2019-05-21T10:48:03.053Z,28.50
2019-05-21T10:50:34.911Z,28.50
2019-05-21T10:53:06.642Z,28.40
2019-05-21T10:55:37.951Z,28.40
2019-05-21T10:58:09.789Z,28.40
2019-05-21T11:00:40.961Z,28.50
2019-05-21T11:03:13.330Z,28.60
2019-05-21T11:05:46.071Z,28.70
2019-05-21T11:08:25.207Z,28.70
2019-05-21T11:10:50.103Z,28.80
2019-05-21T11:13:22.177Z,28.90
2019-05-21T11:15:52.719Z,28.90
2019-05-21T11:18:24.566Z,28.90
2019-05-21T11:20:56.324Z,28.90
2019-05-21T11:23:28.097Z,28.80
2019-05-21T11:25:59.286Z,28.70
2019-05-21T11:28:30.895Z,28.60
2019-05-21T11:31:02.640Z,28.40
2019-05-21T11:33:34.397Z,28.10
2019-05-21T11:36:06.055Z,28.00
2019-05-21T11:38:40.365Z,27.80
2019-05-21T11:41:10.922Z,27.70
2019-05-21T11:43:42.662Z,27.60
2019-05-21T11:46:14.529Z,27.50
2019-05-21T11:48:45.962Z,27.40
2019-05-21T11:51:17.646Z,27.40
2019-05-21T11:53:49.390Z,27.20
2019-05-21T11:56:21.161Z,27.20
2019-05-21T11:58:52.912Z,27.10
2019-05-21T12:01:24.680Z,27.00
2019-05-21T12:03:56.449Z,26.90
2019-05-21T12:06:28.236Z,26.90
2019-05-21T12:08:59.521Z,26.80
2019-05-21T12:11:30.677Z,26.70
2019-05-21T12:14:02.252Z,26.60
2019-05-21T12:16:34.108Z,26.50
2019-05-21T12:19:08.191Z,26.50
2019-05-21T12:21:38.433Z,26.40
2019-05-21T12:24:10.200Z,26.40
2019-05-21T12:26:41.966Z,26.50
2019-05-21T12:29:13.734Z,26.50
2019-05-21T12:31:45.499Z,26.50
2019-05-21T12:34:17.343Z,26.50
2019-05-21T12:36:49.413Z,26.50
2019-05-21T12:39:20.654Z,26.60
2019-05-21T12:41:51.775Z,26.70
2019-05-21T12:44:23.240Z,26.80
2019-05-21T12:46:55.110Z,26.90
2019-05-21T12:49:26.463Z,27.00
2019-05-21T12:51:58.940Z,27.20
2019-05-21T12:54:31.059Z,27.30
2019-05-21T12:57:02.336Z,27.50
2019-05-21T12:59:34.217Z,27.50
2019-05-21T13:02:06.088Z,27.70
2019-05-21T13:04:38.043Z,27.70
2019-05-21T13:07:10.127Z,27.70
2019-05-21T13:09:40.117Z,27.60
2019-05-21T13:12:11.775Z,27.50
2019-05-21T13:14:43.544Z,27.50
2019-05-21T13:17:15.309Z,27.40
2019-05-21T13:19:47.168Z,27.30
2019-05-21T13:22:18.923Z,27.30
2019-05-21T13:24:50.585Z,27.20
2019-05-21T13:27:22.450Z,27.20
2019-05-21T13:29:54.109Z,27.10
2019-05-21T13:32:25.363Z,27.10
2019-05-21T13:34:56.580Z,27.10
2019-05-21T13:37:27.703Z,27.20
2019-05-21T13:39:59.340Z,27.30
2019-05-21T13:42:30.606Z,27.30
2019-05-21T13:45:02.211Z,27.40
2019-05-21T13:47:33.959Z,27.50
2019-05-21T13:50:06.850Z,27.50
2019-05-21T13:52:38.110Z,27.50
2019-05-21T13:55:11.079Z,27.50
2019-05-21T13:57:42.844Z,27.50
2019-05-21T14:00:16.422Z,27.60
2019-05-21T14:02:48.313Z,27.60
2019-05-21T14:05:19.636Z,27.60
2019-05-21T14:07:51.421Z,27.50
2019-05-21T14:10:23.285Z,27.50
2019-05-21T14:12:56.602Z,27.50
2019-05-21T14:15:28.641Z,27.60
2019-05-21T14:18:00.613Z,27.60
2019-05-21T14:20:32.352Z,27.60
2019-05-21T14:23:03.825Z,27.70
2019-05-21T14:25:35.878Z,27.80
2019-05-21T14:28:07.234Z,27.70
2019-05-21T14:30:38.732Z,27.80
2019-05-21T14:33:10.123Z,27.80
2019-05-21T14:35:42.003Z,27.80
2019-05-21T14:38:14.117Z,27.80
2019-05-21T14:40:44.316Z,27.90
2019-05-21T14:43:16.059Z,27.90
2019-05-21T14:45:47.191Z,27.90
2019-05-21T14:48:18.763Z,27.90
2019-05-21T14:50:50.493Z,27.90
2019-05-21T14:53:22.263Z,27.90
2019-05-21T14:55:53.609Z,27.90
2019-05-21T14:58:24.972Z,27.90
2019-05-21T15:00:56.823Z,27.90
2019-05-21T15:03:29.565Z,27.90
2019-05-21T15:06:01.223Z,27.90
2019-05-21T15:08:33.031Z,27.90
2019-05-21T15:11:04.254Z,27.90
2019-05-21T15:13:36.245Z,27.90
2019-05-21T15:16:08.098Z,27.80
2019-05-21T15:18:40.019Z,27.70
2019-05-21T15:21:12.909Z,27.70
2019-05-21T15:23:45.202Z,27.60
2019-05-21T15:26:17.283Z,27.60
2019-05-21T15:28:49.009Z,27.60
2019-05-21T15:31:20.242Z,27.60
2019-05-21T15:33:51.841Z,27.50
2019-05-21T15:36:23.722Z,27.40
2019-05-21T15:38:55.016Z,27.40
2019-05-21T15:41:26.350Z,27.30
2019-05-21T15:43:57.424Z,27.30
2019-05-21T15:46:46.843Z,27.20
2019-05-21T15:49:02.003Z,27.20
2019-05-21T15:51:33.452Z,27.30
2019-05-21T15:54:05.213Z,27.30
2019-05-21T15:56:36.849Z,27.30
2019-05-21T15:59:08.108Z,27.30
2019-05-21T16:01:40.763Z,27.30
2019-05-21T16:04:16.072Z,27.30
2019-05-21T16:06:45.330Z,27.20
2019-05-21T16:09:17.536Z,27.20
2019-05-21T16:11:49.269Z,27.10
2019-05-21T16:14:21.232Z,27.10
2019-05-21T16:16:52.535Z,27.10
2019-05-21T16:19:24.134Z,27.20
2019-05-21T16:21:55.894Z,27.20
2019-05-21T16:24:27.954Z,27.20
2019-05-21T16:26:59.282Z,27.20
2019-05-21T16:29:30.847Z,27.20
2019-05-21T16:32:02.725Z,27.20
2019-05-21T16:34:34.484Z,27.10
2019-05-21T16:37:06.192Z,27.10
2019-05-21T16:39:37.988Z,27.10
2019-05-21T16:42:09.783Z,27.10
2019-05-21T16:44:41.379Z,27.10
2019-05-21T16:47:12.728Z,27.10
2019-05-21T16:49:44.315Z,27.10
2019-05-21T16:52:15.559Z,27.10
2019-05-21T16:54:47.338Z,27.10
2019-05-21T16:57:18.329Z,27.10
2019-05-21T16:59:50.139Z,27.10
2019-05-21T17:02:21.389Z,27.10
2019-05-21T17:04:53.138Z,27.10
2019-05-21T17:07:24.353Z,27.10
2019-05-21T17:09:55.929Z,27.00
2019-05-21T17:12:27.549Z,27.00
2019-05-21T17:14:58.777Z,27.00
2019-05-21T17:17:30.174Z,27.00
2019-05-21T17:20:01.810Z,27.00
2019-05-21T17:22:33.920Z,26.90
2019-05-21T17:25:06.813Z,26.80
2019-05-21T17:27:38.088Z,26.80
2019-05-21T17:30:11.528Z,26.80
2019-05-21T17:32:43.410Z,26.70
2019-05-21T17:35:16.396Z,26.70
2019-05-21T17:37:48.155Z,26.60
2019-05-21T17:40:20.174Z,26.60
2019-05-21T17:42:51.984Z,26.50
2019-05-21T17:45:23.750Z,26.50
2019-05-21T17:47:55.500Z,26.50
2019-05-21T17:50:26.567Z,26.40
2019-05-21T17:52:58.218Z,26.30
2019-05-21T17:55:30.061Z,26.30
2019-05-21T17:58:01.542Z,26.30
2019-05-21T18:00:34.247Z,26.30
2019-05-21T18:03:05.963Z,26.20
2019-05-21T18:05:36.927Z,26.20
2019-05-21T18:08:08.059Z,26.30
2019-05-21T18:10:40.418Z,26.30
2019-05-21T18:13:13.402Z,26.30
2019-05-21T18:15:45.193Z,26.30
2019-05-21T18:18:17.131Z,26.40
2019-05-21T18:20:49.027Z,26.40
2019-05-21T18:23:20.543Z,26.30
2019-05-21T18:25:52.823Z,26.30
2019-05-21T18:28:24.109Z,26.30
2019-05-21T18:30:55.714Z,26.30
2019-05-21T18:33:27.430Z,26.30
2019-05-21T18:35:59.239Z,26.30
2019-05-21T18:38:30.905Z,26.40
2019-05-21T18:41:02.336Z,26.40
2019-05-21T18:43:34.212Z,26.40
2019-05-21T18:46:05.655Z,26.40
2019-05-21T18:48:37.626Z,26.40
2019-05-21T18:51:09.376Z,26.40
2019-05-21T18:53:41.002Z,26.30
2019-05-21T18:56:12.457Z,26.30
2019-05-21T18:58:44.148Z,26.30
2019-05-21T19:01:15.450Z,26.20
2019-05-21T19:03:46.505Z,26.20
2019-05-21T19:06:18.114Z,26.20
2019-05-21T19:08:50.214Z,26.10
2019-05-21T19:11:22.018Z,26.20
2019-05-21T19:13:53.779Z,26.20
2019-05-21T19:16:24.876Z,26.20
2019-05-21T19:18:56.681Z,26.20
2019-05-21T19:21:27.882Z,26.30
2019-05-21T19:23:59.502Z,26.30
2019-05-21T19:26:30.748Z,26.30
2019-05-21T19:29:02.703Z,26.30
2019-05-21T19:31:34.564Z,26.40
2019-05-21T19:34:06.628Z,26.40
2019-05-21T19:36:37.839Z,26.40
2019-05-21T19:39:09.609Z,26.40
2019-05-21T19:41:41.195Z,26.50
2019-05-21T19:44:13.051Z,26.50
2019-05-21T19:46:44.509Z,26.50
2019-05-21T19:49:16.477Z,26.50
2019-05-21T19:51:48.240Z,26.50
2019-05-21T19:54:19.656Z,26.50
2019-05-21T19:56:50.775Z,26.50
2019-05-21T19:59:22.683Z,26.40
2019-05-21T20:01:55.277Z,26.30
2019-05-21T20:04:27.743Z,26.20
2019-05-21T20:06:59.395Z,26.10
2019-05-21T20:09:31.148Z,26.10
2019-05-21T20:12:02.874Z,26.00
2019-05-21T20:14:34.069Z,26.00
2019-05-21T20:17:05.609Z,25.90
2019-05-21T20:19:36.813Z,25.70
2019-05-21T20:22:09.643Z,25.70
2019-05-21T20:24:42.154Z,25.50
2019-05-21T20:27:14.186Z,25.30
2019-05-21T20:29:45.942Z,25.20
2019-05-21T20:33:13.670Z,25.00
2019-05-21T20:35:45.892Z,25.00
2019-05-21T20:38:15.798Z,24.90
2019-05-21T20:40:47.627Z,24.80
2019-05-21T20:43:19.174Z,24.80
2019-05-21T20:45:52.035Z,24.80
2019-05-21T20:48:25.079Z,24.70
2019-05-21T20:50:56.711Z,24.70
2019-05-21T20:53:28.473Z,24.60
2019-05-21T20:56:00.272Z,24.60
2019-05-21T20:58:32.334Z,24.60
2019-05-21T21:01:05.266Z,24.70
2019-05-21T21:03:37.188Z,24.70
2019-05-21T21:06:08.648Z,24.80
2019-05-21T21:08:40.290Z,24.90
2019-05-21T21:11:12.467Z,25.00
2019-05-21T21:13:43.927Z,25.00
2019-05-21T21:16:15.287Z,25.00
2019-05-21T21:18:47.021Z,24.90
2019-05-21T21:21:19.198Z,24.90
2019-05-21T21:23:52.082Z,24.90
2019-05-21T21:26:23.845Z,24.80
2019-05-21T21:28:55.612Z,24.70
2019-05-21T21:31:27.058Z,24.70
2019-05-21T21:33:58.817Z,24.60
2019-05-21T21:36:30.978Z,24.50
2019-05-21T21:39:02.519Z,24.50
2019-05-21T21:41:34.242Z,24.40
2019-05-21T21:44:05.684Z,24.30
2019-05-21T21:46:37.772Z,24.20
2019-05-21T21:49:10.420Z,24.10
2019-05-21T21:51:41.567Z,24.10
2019-05-21T21:54:13.495Z,24.10
2019-05-21T21:56:45.265Z,23.90
2019-05-21T21:59:16.586Z,23.90
2019-05-21T22:01:50.462Z,23.70
2019-05-21T22:04:24.421Z,23.70
2019-05-21T22:06:57.614Z,23.70
2019-05-21T22:09:30.671Z,23.70
2019-05-21T22:12:03.800Z,23.70
2019-05-21T22:14:49.591Z,23.70
2019-05-21T22:17:09.890Z,23.70
2019-05-21T22:19:42.677Z,23.70
2019-05-21T22:22:14.741Z,23.70
2019-05-21T22:24:46.082Z,23.70
2019-05-21T22:27:17.244Z,23.70
2019-05-21T22:29:48.692Z,23.70
2019-05-21T22:32:19.957Z,23.70
2019-05-21T22:34:51.420Z,23.70
2019-05-21T22:37:23.963Z,23.70
2019-05-21T22:39:55.609Z,23.60
2019-05-21T22:42:27.670Z,23.60
2019-05-21T22:45:07.814Z,23.60
2019-05-21T22:47:33.755Z,23.60
2019-05-21T22:50:05.928Z,23.60
2019-05-21T22:52:37.888Z,23.60
2019-05-21T22:55:10.252Z,23.60
2019-05-21T22:57:42.229Z,23.60
2019-05-21T23:00:14.304Z,23.60
2019-05-21T23:02:47.368Z,23.60
2019-05-21T23:05:18.430Z,23.60
2019-05-21T23:07:49.751Z,23.60
2019-05-21T23:10:21.985Z,23.60
2019-05-21T23:12:53.693Z,23.60
2019-05-21T23:15:25.826Z,23.60
2019-05-21T23:17:57.818Z,23.60
2019-05-21T23:20:30.671Z,23.60
2019-05-21T23:23:02.269Z,23.70
2019-05-21T23:25:34.647Z,23.60
2019-05-21T23:28:05.495Z,23.60
2019-05-21T23:30:37.354Z,23.60
2019-05-21T23:33:09.931Z,23.60
2019-05-21T23:35:41.999Z,23.50
2019-05-21T23:38:14.532Z,23.50
2019-05-21T23:40:46.135Z,23.50
2019-05-21T23:43:18.806Z,23.50
2019-05-21T23:45:50.182Z,23.50
2019-05-21T23:48:22.443Z,23.50
2019-05-21T23:50:53.576Z,23.50
2019-05-21T23:53:25.223Z,23.50
2019-05-21T23:55:57.077Z,23.50
2019-05-21T23:58:28.352Z,23.40
